Time;durP1;ratioP1;P1;durP2;ratioP2;P2;SDS_P1;SDS_P2;PMS_P1;PMS_P2;Temp;Humidity;BMP_temperature;BMP_pressure;BME280_temperature;BME280_humidity;BME280_pressure;Samples;Min_cycle;Max_cycle;Signal;HPM_P1;HPM_P2
2022/12/05 13:55:24;;;;;;;;;;;;;;;;;;4953515;29;2022;-43
2022/12/05 13:57:55;;;;;;;;;;;;;;;;;;4944295;28;2035;-41
2022/12/05 14:00:25;;;;;;;;;;;;;;;;;;4965893;28;2006;-44
2022/12/05 14:02:53;;;;;;;;;;;;;;;;;;4972693;28;1992;-43
2022/12/05 14:05:20;;;;;;;;;;;;;;;;;;4972590;28;1923;-43
2022/12/05 14:07:50;;;;;;;;;;;;;;;;;;4972753;28;1931;-41
2022/12/05 14:10:27;;;;;;;;;;;;;;;;;;4969416;28;2050;-42
2022/12/05 14:12:55;;;;;;;;;;;;;;;;;;4962630;28;2014;-42
2022/12/05 14:15:36;;;;;;;;;;;;;;;;;;4972402;28;2034;-42
2022/12/05 14:18:13;;;;;;;;;;;;;;;;;;4972302;28;1947;-43
2022/12/05 14:20:40;;;;;;;;;;;;;;;;;;4972102;28;1997;-47
2022/12/05 14:23:25;;;;;;;;;;;;;;;;;;4975991;28;1949;-41
2022/12/05 14:25:54;;;;;;;;;;;;;;;;;;4976255;28;1889;-43
2022/12/05 14:28:43;;;;;;;;;;;;;;;;;;4976222;28;2071;-41
2022/12/05 14:31:13;;;;;;;;;;;;;;;;;;4976000;28;2039;-43
2022/12/05 14:33:40;;;;;;;;;;;;;;;;;;4976199;28;1965;-42
2022/12/05 14:36:13;;;;;;;;;;;;;;;;;;4976189;28;1958;-43
2022/12/05 14:38:40;;;;;;;;;;;;;;;;;;4976081;28;2018;-41
2022/12/05 14:41:37;;;;;;;;;;;;;;;;;;4975820;28;2006;-43
2022/12/05 14:44:14;;;;;;;;;;;;;;;;;;4971515;28;2068;-45
2022/12/05 14:46:43;;;;;;;;;;;;;;;;;;4975894;28;2060;-42
2022/12/05 14:49:29;;;;;;;;;;;;;;;;;;4975738;28;1846;-43
2022/12/05 14:51:59;;;;;;;;;;;;;;;;;;4975730;28;2294;-44
2022/12/05 14:54:27;;;;;;;;;;;;;;;;;;4975634;28;2079;-42
2022/12/05 14:57:09;;;;;;;;;;;;;;;;;;4975760;28;1967;-41
2022/12/05 14:59:57;;;;;;;;;;;;;;;;;;4975458;28;2002;-42
2022/12/05 15:02:26;;;;;;;;;;;;;;;;;;4974104;28;1949;-41
2022/12/05 15:05:02;;;;;;;;;;;;;;;;;;4975751;28;1990;-42
2022/12/05 15:07:39;;;;;;;;;;;;;;;;;;4975589;28;1753;-41
2022/12/05 15:10:09;;;;;;;;;;;;;;;;;;4975578;28;1987;-45
2022/12/05 15:12:42;;;;;;;;;;;;;;;;;;4975607;28;1772;-44
2022/12/05 15:15:16;;;;;;;;;;;;;;;;;;4975392;28;2180;-42
2022/12/05 15:17:48;;;;;;;;;;;;;;;;;;4975430;28;1822;-43
2022/12/05 15:20:19;;;;;;;;;;;;;;;;;;4975043;28;2054;-46
2022/12/05 15:22:47;;;;;;;;;;;;;;;;;;4975266;28;1828;-41
2022/12/05 15:25:34;;;;;;;;;;;;;;;;;;4975010;28;2090;-41
2022/12/05 15:28:05;;;;;;;;;;;;;;;;;;4975135;28;1921;-41
2022/12/05 15:30:35;;;;;;;;;;;;;;;;;;4975028;28;2011;-40
2022/12/05 15:33:02;;;;;;;;;;;;;;;;;;4974457;28;2057;-39
2022/12/05 15:35:31;;;;;;;;;;;;;;;;;;4974819;28;2126;-39
2022/12/05 15:38:02;;;;;;;;;;;;;;;;;;4974928;28;2319;-40
2022/12/05 15:40:36;;;;;;;;;;;;;;;;;;4974796;28;1990;-39
2022/12/05 15:43:22;;;;;;;;;;;;;;;;;;4974729;28;2217;-41
2022/12/05 15:45:49;;;;;;;;;;;;;;;;;;4974763;28;1856;-40
2022/12/05 15:48:16;;;;;;;;;;;;;;;;;;4974641;28;1852;-39
2022/12/05 15:50:50;;;;;;;;;;;;;;;;;;4974761;28;1974;-39
2022/12/05 15:53:21;;;;;;;;;;;;;;;;;;4974597;28;2113;-39
2022/12/05 15:56:08;;;;;;;;;;;;;;;;;;4974567;28;1399;-39
2022/12/05 15:58:38;;;;;;;;;;;;;;;;;;4973854;28;1873;-39
2022/12/05 16:01:09;;;;;;;;;;;;;;;;;;4974586;28;1995;-38
2022/12/05 16:03:36;;;;;;;;;;;;;;;;;;4974339;28;2046;-39
2022/12/05 16:06:06;;;;;;;;;;;;;;;;;;4974525;28;2030;-39
2022/12/05 16:08:40;;;;;;;;;;;;;;;;;;4974429;28;1994;-39
2022/12/05 16:11:08;;;;;;;;;;;;;;;;;;4974241;28;1967;-41
2022/12/05 16:13:36;;;;;;;;;;;;;;;;;;4974229;28;2066;-38
2022/12/05 16:16:04;;;;;;;;;;;;;;;;;;4974269;28;1952;-40
2022/12/05 16:18:31;;;;;;;;;;;;;;;;;;4974311;28;1936;-39
2022/12/05 16:20:58;;;;;;;;;;;;;;;;;;4973404;28;1985;-39
2022/12/05 16:23:31;;;;;;;;;;;;;;;;;;4974209;28;1886;-39
2022/12/05 16:26:17;;;;;;;;;;;;;;;;;;4974296;28;2103;-39
2022/12/05 16:28:55;;;;;;;;;;;;;;;;;;4972622;28;1845;-39
2022/12/05 16:31:22;;;;;;;;;;;;;;;;;;4974008;28;1831;-38
2022/12/05 16:33:58;;;;;;;;;;;;;;;;;;4973748;28;1830;-40
2022/12/05 16:36:26;;;;;;;;;;;;;;;;;;4974156;28;2005;-39
2022/12/05 16:39:02;;;;;;;;;;;;;;;;;;4974144;28;2055;-39
2022/12/05 16:41:36;;;;;;;;;;;;;;;;;;4973970;28;2002;-39
2022/12/05 16:44:04;;;;;;;;;;;;;;;;;;4973838;28;1235;-43
2022/12/05 16:46:38;;;;;;;;;;;;;;;;;;4972686;28;2142;-40
2022/12/05 16:49:16;;;;;;;;;;;;;;;;;;4973120;28;1813;-39
2022/12/05 16:51:44;;;;;;;;;;;;;;;;;;4987964;28;2147;-39
2022/12/05 16:54:12;;;;;;;;;;;;;;;;;;4973708;28;1934;-39
2022/12/05 16:56:40;;;;;;;;;;;;;;;;;;4973244;28;1790;-40
2022/12/05 16:59:10;;;;;;;;;;;;;;;;;;4987986;28;2035;-39
2022/12/05 17:01:37;;;;;;;;;;;;;;;;;;4971670;28;2025;-39
2022/12/05 17:04:05;;;;;;;;;;;;;;;;;;4954072;28;2139;-40
2022/12/05 17:06:38;;;;;;;;;;;;;;;;;;5192523;27;1210;-39
2022/12/05 17:09:05;;;;;;;;;;;;;;;;;;5192004;27;1056;-39
2022/12/05 17:11:34;;;;;;;;;;;;;;;;;;5191974;27;1173;-39
2022/12/05 17:14:01;;;;;;;;;;;;;;;;;;5192210;27;999;-40
2022/12/05 17:16:28;;;;;;;;;;;;;;;;;;5192167;27;958;-39
2022/12/05 17:18:56;;;;;;;;;;;;;;;;;;5191983;27;1180;-39
2022/12/05 17:21:24;;;;;;;;;;;;;;;;;;5182177;27;1379;-39
2022/12/05 17:23:53;;;;;;;;;;;;;;;;;;5153266;27;1437;-39
2022/12/05 17:26:20;;;;;;;;;;;;;;;;;;5170567;27;1964;-39
2022/12/05 17:28:48;;;;;;;;;;;;;;;;;;5170611;27;1242;-38
2022/12/05 17:31:19;;;;;;;;;;;;;;;;;;5170695;27;891;-39
2022/12/05 17:33:47;;;;;;;;;;;;;;;;;;5170701;27;1300;-39
2022/12/05 17:36:14;;;;;;;;;;;;;;;;;;5170603;27;1060;-39
2022/12/05 17:38:44;;;;;;;;;;;;;;;;;;5170282;27;1166;-39
2022/12/05 17:41:18;;;;;;;;;;;;;;;;;;5170475;27;1145;-41
2022/12/05 17:43:46;;;;;;;;;;;;;;;;;;5170479;27;1095;-42
2022/12/05 17:46:18;;;;;;;;;;;;;;;;;;5170358;27;1914;-39
2022/12/05 17:48:45;;;;;;;;;;;;;;;;;;5170197;27;1093;-38
2022/12/05 17:51:13;;;;;;;;;;;;;;;;;;5151530;27;1011;-39
2022/12/05 17:53:41;;;;;;;;;;;;;;;;;;5170165;27;1096;-40
2022/12/05 17:56:08;;;;;;;;;;;;;;;;;;5170229;27;1450;-39
2022/12/05 17:58:36;;;;;;;;;;;;;;;;;;5170186;27;1052;-40
2022/12/05 18:01:04;;;;;;;;;;;;;;;;;;5176626;27;1120;-42
2022/12/05 18:03:31;;;;;;;;;;;;;;;;;;5170264;27;947;-40
2022/12/05 18:05:58;;;;;;;;;;;;;;;;;;5151292;27;1918;-41
2022/12/05 18:08:26;;;;;;;;;;;;;;;;;;5151293;27;1304;-41
2022/12/05 18:10:54;;;;;;;;;;;;;;;;;;5170092;27;1005;-44
2022/12/05 18:13:21;;;;;;;;;;;;;;;;;;5169887;27;1075;-41
2022/12/05 18:15:54;;;;;;;;;;;;;;;;;;5169094;27;948;-40
2022/12/05 18:18:21;;;;;;;;;;;;;;;;;;5155439;27;911;-41
2022/12/05 18:20:48;;;;;;;;;;;;;;;;;;5167641;27;1312;-41
2022/12/05 18:23:15;;;;;;;;;;;;;;;;;;5176673;27;2118;-42
2022/12/05 18:25:42;;;;;;;;;;;;;;;;;;5176416;27;1981;-41
2022/12/05 18:28:10;;;;;;;;;;;;;;;;;;5176639;27;886;-41
2022/12/05 18:30:40;;;;;;;;;;;;;;;;;;5176410;27;1064;-41
2022/12/05 18:33:07;;;;;;;;;;;;;;;;;;5176757;27;1228;-41
2022/12/05 18:35:39;;;;;;;;;;;;;;;;;;5176619;27;1001;-39
2022/12/05 18:38:07;;;;;;;;;;;;;;;;;;5170644;27;1014;-39
2022/12/05 18:40:34;;;;;;;;;;;;;;;;;;5155682;27;1347;-41
2022/12/05 18:43:02;;;;;;;;;;;;;;;;;;5155271;27;1313;-40
2022/12/05 18:45:28;;;;;;;;;;;;;;;;;;5155353;27;1911;-38
2022/12/05 18:47:56;;;;;;;;;;;;;;;;;;5155249;27;1285;-39
2022/12/05 18:50:35;;;;;;;;;;;;;;;;;;5155507;27;1186;-41
2022/12/05 18:53:02;;;;;;;;;;;;;;;;;;5155163;27;1082;-41
2022/12/05 18:55:29;;;;;;;;;;;;;;;;;;5155170;27;1148;-39
2022/12/05 18:58:16;;;;;;;;;;;;;;;;;;5155093;27;1218;-40
2022/12/05 19:00:43;;;;;;;;;;;;;;;;;;5155076;27;1110;-42
2022/12/05 19:03:11;;;;;;;;;;;;;;;;;;5155047;27;1100;-42
2022/12/05 19:05:38;;;;;;;;;;;;;;;;;;5154922;27;1917;-41
2022/12/05 19:08:05;;;;;;;;;;;;;;;;;;5155119;27;919;-43
2022/12/05 19:10:34;;;;;;;;;;;;;;;;;;5154697;27;1083;-41
2022/12/05 19:13:01;;;;;;;;;;;;;;;;;;5154982;27;1465;-41
2022/12/05 19:15:28;;;;;;;;;;;;;;;;;;5154760;27;1154;-41
2022/12/05 19:17:55;;;;;;;;;;;;;;;;;;5154609;27;1286;-43
2022/12/05 19:20:22;;;;;;;;;;;;;;;;;;5162668;27;1283;-41
2022/12/05 19:22:49;;;;;;;;;;;;;;;;;;5156501;27;2502;-40
2022/12/05 19:25:16;;;;;;;;;;;;;;;;;;5175370;27;1905;-41
2022/12/05 19:27:43;;;;;;;;;;;;;;;;;;5174946;27;915;-40
2022/12/05 19:30:10;;;;;;;;;;;;;;;;;;5156600;27;1226;-41
2022/12/05 19:32:37;;;;;;;;;;;;;;;;;;5175597;27;1152;-41
2022/12/05 19:35:06;;;;;;;;;;;;;;;;;;5175102;27;1068;-40
2022/12/05 19:37:34;;;;;;;;;;;;;;;;;;5175123;27;939;-41
2022/12/05 19:40:01;;;;;;;;;;;;;;;;;;5174943;27;1080;-42
2022/12/05 19:42:29;;;;;;;;;;;;;;;;;;5175122;27;969;-41
2022/12/05 19:44:57;;;;;;;;;;;;;;;;;;5156157;27;1919;-43
2022/12/05 19:47:29;;;;;;;;;;;;;;;;;;5175000;27;1278;-41
2022/12/05 19:49:56;;;;;;;;;;;;;;;;;;5156529;27;1344;-42
2022/12/05 19:52:23;;;;;;;;;;;;;;;;;;5174843;27;1203;-41
2022/12/05 19:54:51;;;;;;;;;;;;;;;;;;5174850;27;983;-40
2022/12/05 19:57:18;;;;;;;;;;;;;;;;;;5174755;27;978;-40
2022/12/05 19:59:47;;;;;;;;;;;;;;;;;;5174632;27;957;-41
2022/12/05 20:02:14;;;;;;;;;;;;;;;;;;5174620;27;1169;-42
2022/12/05 20:04:42;;;;;;;;;;;;;;;;;;5174641;27;1217;-42
2022/12/05 20:07:09;;;;;;;;;;;;;;;;;;5174720;27;1909;-41
2022/12/05 20:09:37;;;;;;;;;;;;;;;;;;5156122;27;1077;-41
2022/12/05 20:12:05;;;;;;;;;;;;;;;;;;5174622;27;1070;-40
2022/12/05 20:14:33;;;;;;;;;;;;;;;;;;5174378;27;1011;-40
2022/12/05 20:17:00;;;;;;;;;;;;;;;;;;5174244;27;1152;-41
2022/12/05 20:19:27;;;;;;;;;;;;;;;;;;5174021;27;1299;-40
2022/12/05 20:21:54;;;;;;;;;;;;;;;;;;5153592;27;1074;-42
2022/12/05 20:24:21;;;;;;;;;;;;;;;;;;5153426;27;1368;-42
2022/12/05 20:26:49;;;;;;;;;;;;;;;;;;5153372;27;1914;-41
2022/12/05 20:29:16;;;;;;;;;;;;;;;;;;5153219;27;915;-40
2022/12/05 20:31:43;;;;;;;;;;;;;;;;;;5153517;27;1065;-41
2022/12/05 20:34:12;;;;;;;;;;;;;;;;;;5153411;27;1189;-40
2022/12/05 20:36:39;;;;;;;;;;;;;;;;;;5153279;27;965;-42
2022/12/05 20:39:09;;;;;;;;;;;;;;;;;;5153000;27;1191;-41
2022/12/05 20:41:36;;;;;;;;;;;;;;;;;;5153064;27;1113;-42
2022/12/05 20:44:04;;;;;;;;;;;;;;;;;;5152949;27;1246;-42
2022/12/05 20:46:31;;;;;;;;;;;;;;;;;;5154717;27;1910;-41
2022/12/05 20:48:58;;;;;;;;;;;;;;;;;;5173958;27;970;-42
2022/12/05 20:51:27;;;;;;;;;;;;;;;;;;5173841;27;1194;-41
2022/12/05 20:53:54;;;;;;;;;;;;;;;;;;5173709;27;1184;-41
2022/12/05 20:56:27;;;;;;;;;;;;;;;;;;5173850;27;927;-43
2022/12/05 20:58:55;;;;;;;;;;;;;;;;;;5173862;27;1378;-42
2022/12/05 21:01:23;;;;;;;;;;;;;;;;;;5173739;27;1197;-45
2022/12/05 21:03:50;;;;;;;;;;;;;;;;;;5173714;27;1306;-42
2022/12/05 21:06:17;;;;;;;;;;;;;;;;;;5173678;27;1992;-42
2022/12/05 21:08:45;;;;;;;;;;;;;;;;;;5174031;27;1134;-41
2022/12/05 21:11:12;;;;;;;;;;;;;;;;;;5173255;27;1389;-42
2022/12/05 21:13:39;;;;;;;;;;;;;;;;;;5173424;27;1207;-40
2022/12/05 21:16:08;;;;;;;;;;;;;;;;;;5173593;27;1137;-40
2022/12/05 21:18:35;;;;;;;;;;;;;;;;;;5173652;27;1167;-41
2022/12/05 21:21:04;;;;;;;;;;;;;;;;;;5173564;27;1462;-41
2022/12/05 21:23:31;;;;;;;;;;;;;;;;;;5173402;27;1041;-41
2022/12/05 21:26:03;;;;;;;;;;;;;;;;;;5154678;27;1931;-41
2022/12/05 21:28:31;;;;;;;;;;;;;;;;;;5173299;27;916;-41
2022/12/05 21:31:08;;;;;;;;;;;;;;;;;;5173550;27;1039;-41
2022/12/05 21:33:38;;;;;;;;;;;;;;;;;;5173456;27;1273;-40
2022/12/05 21:36:05;;;;;;;;;;;;;;;;;;5173388;27;1679;-41
2022/12/05 21:38:33;;;;;;;;;;;;;;;;;;5173261;27;1164;-40
2022/12/05 21:41:01;;;;;;;;;;;;;;;;;;5173471;27;951;-40
2022/12/05 21:43:28;;;;;;;;;;;;;;;;;;5173441;27;1045;-40
2022/12/05 21:45:55;;;;;;;;;;;;;;;;;;5173216;27;1882;-40
2022/12/05 21:48:23;;;;;;;;;;;;;;;;;;5173316;27;1327;-40
2022/12/05 21:50:50;;;;;;;;;;;;;;;;;;5154666;27;1236;-41
2022/12/05 21:53:19;;;;;;;;;;;;;;;;;;5177084;27;1190;-41
2022/12/05 21:55:47;;;;;;;;;;;;;;;;;;5177412;27;989;-40
2022/12/05 21:58:14;;;;;;;;;;;;;;;;;;5177109;27;1047;-39
2022/12/05 22:00:41;;;;;;;;;;;;;;;;;;5177112;27;1046;-39
2022/12/05 22:03:12;;;;;;;;;;;;;;;;;;5176949;27;1048;-41
2022/12/05 22:05:39;;;;;;;;;;;;;;;;;;5176774;27;1984;-40
2022/12/05 22:08:06;;;;;;;;;;;;;;;;;;5176933;27;997;-40
2022/12/05 22:10:34;;;;;;;;;;;;;;;;;;5176950;27;1155;-40
2022/12/05 22:13:01;;;;;;;;;;;;;;;;;;5176927;27;1089;-40
2022/12/05 22:15:28;;;;;;;;;;;;;;;;;;5176781;27;1272;-41
2022/12/05 22:17:55;;;;;;;;;;;;;;;;;;5176629;27;1244;-41
2022/12/05 22:20:22;;;;;;;;;;;;;;;;;;5168500;27;1271;-40
2022/12/05 22:22:49;;;;;;;;;;;;;;;;;;5156192;27;1159;-40
2022/12/05 22:25:17;;;;;;;;;;;;;;;;;;5137293;27;1224;-41
2022/12/05 22:27:45;;;;;;;;;;;;;;;;;;5155641;27;1963;-40
2022/12/05 22:30:12;;;;;;;;;;;;;;;;;;5155579;27;904;-40
2022/12/05 22:32:39;;;;;;;;;;;;;;;;;;5155594;27;1185;-41
2022/12/05 22:35:06;;;;;;;;;;;;;;;;;;5155507;27;1054;-40
2022/12/05 22:37:34;;;;;;;;;;;;;;;;;;5155493;27;904;-40
2022/12/05 22:40:01;;;;;;;;;;;;;;;;;;5155296;27;1176;-40
2022/12/05 22:42:28;;;;;;;;;;;;;;;;;;5155404;27;1005;-41
2022/12/05 22:44:55;;;;;;;;;;;;;;;;;;5155113;27;992;-41
2022/12/05 22:47:22;;;;;;;;;;;;;;;;;;5155516;27;1911;-40
2022/12/05 22:49:50;;;;;;;;;;;;;;;;;;5155534;27;1084;-40
2022/12/05 22:52:17;;;;;;;;;;;;;;;;;;5155175;27;1093;-41
2022/12/05 22:54:44;;;;;;;;;;;;;;;;;;5155260;27;1095;-41
2022/12/05 22:57:11;;;;;;;;;;;;;;;;;;5155102;27;1273;-40
2022/12/05 22:59:38;;;;;;;;;;;;;;;;;;5155141;27;935;-41
2022/12/05 23:02:06;;;;;;;;;;;;;;;;;;5154948;27;1011;-40
2022/12/05 23:04:33;;;;;;;;;;;;;;;;;;5154782;27;1889;-40
2022/12/05 23:07:00;;;;;;;;;;;;;;;;;;5154922;27;1910;-41
2022/12/05 23:09:27;;;;;;;;;;;;;;;;;;5154886;27;1277;-41
2022/12/05 23:11:54;;;;;;;;;;;;;;;;;;5154976;27;923;-42
2022/12/05 23:14:21;;;;;;;;;;;;;;;;;;5155110;27;905;-40
2022/12/05 23:16:48;;;;;;;;;;;;;;;;;;5154727;27;1248;-40
2022/12/05 23:19:15;;;;;;;;;;;;;;;;;;5154817;27;1131;-40
2022/12/05 23:21:42;;;;;;;;;;;;;;;;;;5174144;27;1256;-40
2022/12/05 23:24:11;;;;;;;;;;;;;;;;;;5175472;27;914;-40
2022/12/05 23:26:42;;;;;;;;;;;;;;;;;;5175272;27;1977;-40
2022/12/05 23:29:11;;;;;;;;;;;;;;;;;;5175432;27;1137;-41
2022/12/05 23:31:39;;;;;;;;;;;;;;;;;;5175487;27;1181;-41
2022/12/05 23:34:06;;;;;;;;;;;;;;;;;;5175243;27;1239;-41
2022/12/05 23:36:35;;;;;;;;;;;;;;;;;;5175339;27;934;-41
2022/12/05 23:39:03;;;;;;;;;;;;;;;;;;5174957;27;1065;-40
2022/12/05 23:41:31;;;;;;;;;;;;;;;;;;5175284;27;1117;-41
2022/12/05 23:43:58;;;;;;;;;;;;;;;;;;5162104;27;1084;-41
2022/12/05 23:46:25;;;;;;;;;;;;;;;;;;5154289;27;1909;-40
2022/12/05 23:48:54;;;;;;;;;;;;;;;;;;5154494;27;973;-40
2022/12/05 23:51:22;;;;;;;;;;;;;;;;;;5154033;27;1219;-40
2022/12/05 23:53:53;;;;;;;;;;;;;;;;;;5135508;27;1510;-40
2022/12/05 23:56:22;;;;;;;;;;;;;;;;;;5154142;27;1088;-41
2022/12/05 23:58:49;;;;;;;;;;;;;;;;;;5154076;27;966;-40
